Terminal Aerodrome Forecast
Issued by NWS Indianapolis, IN

Home | Current Version | Previous Version | Text Only | Print | Product List | Glossary On
Versions: 1 2 3 4 5 6 7 8 9 10 11 12 13 14 15 16 17 18 19 20 21 22 23 24 25 26 27 28
000
FTUS43 KIND 270200 AAA
TAFIND
TAF AMD
KIND 270218Z 2702/2806 32008KT P6SM FEW035 SCT100 SCT250
     FM270800 35008KT P6SM BKN035 BKN100
     FM271600 34014G20KT P6SM BKN040=

USA.gov is the U.S. government's official web portal to all federal, state and local government web resources and services.